createdAt,value
2022-08-03T00:02:15.287Z,95144.28
2022-08-03T00:04:42.225Z,95150.56
2022-08-03T00:07:08.920Z,95147.53
2022-08-03T00:09:36.003Z,95146.91
2022-08-03T00:12:02.896Z,95145.50
2022-08-03T00:14:29.724Z,95148.22
2022-08-03T00:16:56.512Z,95144.31
2022-08-03T00:19:23.178Z,95140.47
2022-08-03T00:21:50.064Z,95146.63
2022-08-03T00:24:16.819Z,95147.94
2022-08-03T00:26:43.547Z,95150.19
2022-08-03T00:29:10.215Z,95151.53
2022-08-03T00:31:44.956Z,95140.44
2022-08-03T00:34:29.866Z,95145.72
2022-08-03T00:37:03.432Z,95146.72
2022-08-03T00:39:30.151Z,95151.97
2022-08-03T00:42:02.684Z,95149.91
2022-08-03T00:44:29.370Z,95140.19
2022-08-03T00:46:56.089Z,95139.97
2022-08-03T00:49:23.771Z,95144.44
2022-08-03T00:51:51.050Z,95140.94
2022-08-03T00:54:17.969Z,95140.00
2022-08-03T00:57:00.263Z,95142.81
2022-08-03T00:59:27.547Z,95142.81
2022-08-03T01:01:54.262Z,95145.50
2022-08-03T01:04:20.938Z,95139.59
2022-08-03T01:07:14.215Z,95138.53
2022-08-03T01:09:49.987Z,95142.47
2022-08-03T01:12:38.881Z,95138.81
2022-08-03T01:15:08.484Z,95143.25
2022-08-03T01:17:59.407Z,95141.88
2022-08-03T01:20:33.395Z,95138.00
2022-08-03T01:23:10.468Z,95136.22
2022-08-03T01:26:14.351Z,95137.03
2022-08-03T01:28:53.205Z,95141.09
2022-08-03T01:31:28.527Z,95144.38
2022-08-03T01:34:03.278Z,95132.75
2022-08-03T01:36:37.889Z,95136.41
2022-08-03T01:39:06.897Z,95141.44
2022-08-03T01:41:38.949Z,95137.19
2022-08-03T01:44:30.231Z,95137.50
2022-08-03T01:47:01.086Z,95135.56
2022-08-03T01:49:30.647Z,95130.25
2022-08-03T01:52:05.022Z,95130.53
2022-08-03T01:54:43.033Z,95133.81
2022-08-03T01:57:10.858Z,95130.34
2022-08-03T01:59:40.028Z,95133.84
2022-08-03T02:02:32.145Z,95131.41
2022-08-03T02:05:01.322Z,95130.09
2022-08-03T02:07:30.327Z,95122.28
2022-08-03T02:10:00.118Z,95127.69
2022-08-03T02:12:28.664Z,95138.66
2022-08-03T02:14:57.714Z,95137.22
2022-08-03T02:17:39.650Z,95134.69
2022-08-03T02:20:11.006Z,95137.25
2022-08-03T02:22:42.008Z,95141.53
2022-08-03T02:25:12.203Z,95135.44
2022-08-03T02:27:46.148Z,95133.50
2022-08-03T02:30:13.306Z,95141.97
2022-08-03T02:32:44.053Z,95133.81
2022-08-03T02:35:15.365Z,95142.50
2022-08-03T02:37:50.155Z,95130.53
2022-08-03T02:40:20.325Z,95144.09
2022-08-03T02:42:51.814Z,95132.66
2022-08-03T02:45:21.166Z,95123.88
2022-08-03T02:47:53.827Z,95130.94
2022-08-03T02:50:24.409Z,95129.84
2022-08-03T02:52:54.925Z,95129.84
2022-08-03T02:55:26.261Z,95129.34
2022-08-03T02:57:55.836Z,95132.66
2022-08-03T03:00:28.040Z,95132.66
2022-08-03T03:03:02.484Z,95131.31
2022-08-03T03:05:55.200Z,95134.47
2022-08-03T03:08:26.115Z,95139.72
2022-08-03T03:10:58.216Z,95144.34
2022-08-03T03:13:28.339Z,95140.59
2022-08-03T03:15:59.527Z,95134.84
2022-08-03T03:18:31.076Z,95138.72
2022-08-03T03:21:01.815Z,95143.88
2022-08-03T03:23:28.993Z,95144.72
2022-08-03T03:25:56.796Z,95149.78
2022-08-03T03:28:25.511Z,95145.84
2022-08-03T03:30:53.460Z,95150.69
2022-08-03T03:33:22.081Z,95146.25
2022-08-03T03:35:50.070Z,95146.47
2022-08-03T03:38:16.885Z,95140.88
2022-08-03T03:40:44.074Z,95146.09
2022-08-03T03:43:12.771Z,95149.31
2022-08-03T03:45:43.321Z,95147.88
2022-08-03T03:48:10.234Z,95153.00
2022-08-03T03:50:38.081Z,95157.91
2022-08-03T03:53:05.000Z,95157.47
2022-08-03T03:55:59.388Z,95158.97
2022-08-03T03:58:27.756Z,95157.53
2022-08-03T04:00:54.566Z,95158.91
2022-08-03T04:03:21.481Z,95165.47
2022-08-03T04:05:48.307Z,95156.94
2022-08-03T04:08:17.775Z,95160.66
2022-08-03T04:11:03.802Z,95156.41
2022-08-03T04:13:53.671Z,95163.97
2022-08-03T04:16:25.223Z,95159.81
2022-08-03T04:19:00.843Z,95160.41
2022-08-03T04:21:30.586Z,95157.03
2022-08-03T04:24:03.442Z,95164.16
2022-08-03T04:26:36.235Z,95155.97
2022-08-03T04:29:05.844Z,95164.25
2022-08-03T04:31:34.310Z,95166.66
2022-08-03T04:34:02.790Z,95169.56
2022-08-03T04:36:33.889Z,95165.19
2022-08-03T04:39:04.379Z,95161.94
2022-08-03T04:42:07.165Z,95161.47
2022-08-03T04:44:28.363Z,95164.78
2022-08-03T04:46:57.556Z,95165.16
2022-08-03T04:49:25.997Z,95169.59
2022-08-03T04:51:53.264Z,95166.97
2022-08-03T04:54:20.053Z,95171.69
2022-08-03T04:56:46.729Z,95170.38
2022-08-03T04:59:13.545Z,95173.53
2022-08-03T05:01:41.150Z,95174.91
2022-08-03T05:04:08.155Z,95180.34
2022-08-03T05:06:34.882Z,95179.91
2022-08-03T05:09:02.101Z,95175.94
2022-08-03T05:11:28.748Z,95177.72
2022-08-03T05:13:55.560Z,95184.56
2022-08-03T05:16:22.236Z,95186.25
2022-08-03T05:18:48.922Z,95189.09
2022-08-03T05:21:15.559Z,95190.34
2022-08-03T05:23:43.129Z,95189.81
2022-08-03T05:26:09.850Z,95183.09
2022-08-03T05:28:36.536Z,95192.63
2022-08-03T05:31:03.295Z,95184.53
2022-08-03T05:33:30.111Z,95192.63
2022-08-03T05:36:03.078Z,95191.09
2022-08-03T05:38:35.035Z,95185.28
2022-08-03T05:41:22.974Z,95191.41
2022-08-03T05:43:54.970Z,95196.59
2022-08-03T05:46:24.845Z,95195.97
2022-08-03T05:48:52.176Z,95191.59
2022-08-03T05:51:18.975Z,95182.97
2022-08-03T05:53:46.032Z,95194.44
2022-08-03T05:56:14.508Z,95191.16
2022-08-03T05:58:50.283Z,95195.31
2022-08-03T06:01:18.246Z,95199.75
2022-08-03T06:03:45.731Z,95191.09
2022-08-03T06:06:12.567Z,95195.66
2022-08-03T06:08:40.651Z,95191.16
2022-08-03T06:11:07.904Z,95197.41
2022-08-03T06:13:35.289Z,95199.53
2022-08-03T06:16:02.499Z,95196.78
2022-08-03T06:18:29.328Z,95196.94
2022-08-03T06:20:56.074Z,95196.41
2022-08-03T06:23:25.335Z,95198.44
2022-08-03T06:26:10.609Z,95196.44
2022-08-03T06:28:52.264Z,95188.13
2022-08-03T06:31:21.372Z,95199.19
2022-08-03T06:34:30.509Z,95198.47
2022-08-03T06:36:35.135Z,95188.34
2022-08-03T06:39:02.671Z,95198.91
2022-08-03T06:41:29.359Z,95197.97
2022-08-03T06:44:02.652Z,95206.38
2022-08-03T06:46:31.097Z,95208.75
2022-08-03T06:48:57.934Z,95204.97
2022-08-03T06:52:04.029Z,95214.31
2022-08-03T06:54:11.460Z,95203.47
2022-08-03T06:56:38.356Z,95212.16
2022-08-03T06:59:05.249Z,95215.47
2022-08-03T07:01:32.024Z,95211.88
2022-08-03T07:03:58.824Z,95220.56
2022-08-03T07:06:25.554Z,95229.69
2022-08-03T07:08:55.413Z,95223.31
2022-08-03T07:11:23.465Z,95222.91
2022-08-03T07:13:50.214Z,95221.16
2022-08-03T07:16:17.003Z,95226.88
2022-08-03T07:18:44.520Z,95233.09
2022-08-03T07:21:11.869Z,95231.47
2022-08-03T07:23:38.910Z,95238.66
2022-08-03T07:26:05.622Z,95236.41
2022-08-03T07:28:32.306Z,95242.94
2022-08-03T07:30:59.027Z,95243.28
2022-08-03T07:33:25.717Z,95240.53
2022-08-03T07:35:52.431Z,95235.97
2022-08-03T07:38:21.005Z,95244.91
2022-08-03T07:40:48.291Z,95239.88
2022-08-03T07:43:15.002Z,95239.31
2022-08-03T07:45:41.692Z,95235.31
2022-08-03T07:48:12.083Z,95246.59
2022-08-03T07:50:39.310Z,95243.16
2022-08-03T07:53:06.088Z,95244.25
2022-08-03T07:55:32.858Z,95234.56
2022-08-03T07:58:02.597Z,95243.97
2022-08-03T08:00:29.345Z,95239.22
2022-08-03T08:02:56.178Z,95236.00
2022-08-03T08:05:22.877Z,95235.47
2022-08-03T08:07:51.759Z,95238.31
2022-08-03T08:10:19.178Z,95232.78
2022-08-03T08:12:45.959Z,95225.59
2022-08-03T08:15:12.615Z,95230.88
2022-08-03T08:17:48.057Z,95230.88
2022-08-03T08:20:27.996Z,95232.63
2022-08-03T08:23:03.540Z,95236.25
2022-08-03T08:25:38.857Z,95230.50
2022-08-03T08:28:31.516Z,95227.31
2022-08-03T08:30:52.275Z,95229.34
2022-08-03T08:33:22.606Z,95226.97
2022-08-03T08:35:51.298Z,95231.97
2022-08-03T08:38:17.982Z,95225.66
2022-08-03T08:40:45.024Z,95225.00
2022-08-03T08:43:11.786Z,95227.88
2022-08-03T08:45:38.695Z,95225.84
2022-08-03T08:48:09.455Z,95228.03
2022-08-03T08:50:38.747Z,95221.94
2022-08-03T08:53:17.537Z,95224.44
2022-08-03T08:55:58.324Z,95215.75
2022-08-03T08:58:30.337Z,95217.50
2022-08-03T09:00:57.290Z,95221.03
2022-08-03T09:03:30.222Z,95222.41
2022-08-03T09:06:01.631Z,95229.34
2022-08-03T09:08:34.125Z,95227.09
2022-08-03T09:11:01.955Z,95230.69
2022-08-03T09:13:28.976Z,95223.66
2022-08-03T09:16:15.567Z,95225.16
2022-08-03T09:18:45.087Z,95223.69
2022-08-03T09:21:34.303Z,95222.47
2022-08-03T09:24:06.348Z,95231.44
2022-08-03T09:26:37.036Z,95218.00
2022-08-03T09:29:13.919Z,95229.03
2022-08-03T09:31:45.049Z,95228.19
2022-08-03T09:34:17.499Z,95236.38
2022-08-03T09:36:50.361Z,95233.66
2022-08-03T09:39:19.846Z,95231.03
2022-08-03T09:42:14.455Z,95227.00
2022-08-03T09:44:47.122Z,95231.13
2022-08-03T09:47:16.867Z,95227.03
2022-08-03T09:49:57.896Z,95219.38
2022-08-03T09:52:49.799Z,95228.66
2022-08-03T09:56:31.574Z,95224.81
2022-08-03T09:58:08.861Z,95227.75
2022-08-03T10:01:04.559Z,95215.25
2022-08-03T10:03:35.172Z,95211.97
2022-08-03T10:06:16.668Z,95213.88
2022-08-03T10:08:43.330Z,95212.19
2022-08-03T10:11:10.005Z,95215.06
2022-08-03T10:13:37.792Z,95211.53
2022-08-03T10:16:21.201Z,95199.44
2022-08-03T10:18:51.017Z,95205.81
2022-08-03T10:21:20.149Z,95201.78
2022-08-03T10:23:49.801Z,95208.63
2022-08-03T10:26:22.427Z,95202.50
2022-08-03T10:28:53.810Z,95203.38
2022-08-03T10:31:23.834Z,95187.72
2022-08-03T10:33:56.541Z,95197.94
2022-08-03T10:36:28.223Z,95196.16
2022-08-03T10:38:57.111Z,95192.97
2022-08-03T10:41:31.865Z,95189.94
2022-08-03T10:44:17.736Z,95183.63
2022-08-03T10:46:47.179Z,95191.72
2022-08-03T10:49:31.868Z,95190.72
2022-08-03T10:52:08.411Z,95188.22
2022-08-03T10:54:44.448Z,95190.25
2022-08-03T10:57:43.530Z,95192.25
2022-08-03T11:00:21.270Z,95195.16
2022-08-03T11:03:06.156Z,95196.00
2022-08-03T11:05:38.809Z,95184.59
2022-08-03T11:08:19.466Z,95180.50
2022-08-03T11:10:49.111Z,95186.22
2022-08-03T11:13:18.478Z,95184.72
2022-08-03T11:15:48.911Z,95173.66
2022-08-03T11:18:16.129Z,95170.66
2022-08-03T11:20:48.377Z,95180.25
2022-08-03T11:23:16.798Z,95179.38
2022-08-03T11:26:14.581Z,95182.13
2022-08-03T11:28:43.728Z,95171.56
2022-08-03T11:31:49.352Z,95178.59
2022-08-03T11:34:16.923Z,95174.00
2022-08-03T11:37:23.020Z,95168.34
2022-08-03T11:39:52.837Z,95156.91
2022-08-03T11:42:22.415Z,95161.66
2022-08-03T11:44:50.296Z,95159.13
2022-08-03T11:47:18.199Z,95160.19
2022-08-03T11:49:49.881Z,95151.47
2022-08-03T11:52:17.788Z,95150.16
2022-08-03T11:54:44.864Z,95158.16
2022-08-03T11:57:11.913Z,95148.09
2022-08-03T11:59:38.856Z,95147.50
2022-08-03T12:02:11.095Z,95139.94
2022-08-03T12:05:09.949Z,95142.50
2022-08-03T12:08:04.957Z,95143.09
2022-08-03T12:10:33.355Z,95133.16
2022-08-03T12:13:02.294Z,95142.03
2022-08-03T12:15:31.748Z,95129.38
2022-08-03T12:17:58.484Z,95125.56
2022-08-03T12:20:34.640Z,95129.75
2022-08-03T12:23:04.746Z,95130.41
2022-08-03T12:25:39.141Z,95124.19
2022-08-03T12:28:36.099Z,95122.38
2022-08-03T12:31:08.906Z,95114.13
2022-08-03T12:33:59.003Z,95121.16
2022-08-03T12:36:27.046Z,95116.69
2022-08-03T12:39:04.025Z,95111.66
2022-08-03T12:41:34.408Z,95103.78
2022-08-03T12:44:02.260Z,95105.44
2022-08-03T12:46:41.652Z,95108.31
2022-08-03T12:49:13.864Z,95112.09
2022-08-03T12:51:43.562Z,95106.22
2022-08-03T12:54:24.746Z,95109.31
2022-08-03T12:57:06.959Z,95110.03
2022-08-03T12:59:40.778Z,95098.97
2022-08-03T13:02:19.868Z,95101.81
2022-08-03T13:04:52.443Z,95096.38
2022-08-03T13:07:21.492Z,95102.03
2022-08-03T13:09:53.828Z,95087.94
2022-08-03T13:12:29.249Z,95084.34
2022-08-03T13:14:58.928Z,95092.03
2022-08-03T13:17:27.100Z,95093.59
2022-08-03T13:19:54.194Z,95093.56
2022-08-03T13:22:26.095Z,95096.72
2022-08-03T13:24:55.049Z,95086.00
2022-08-03T13:28:01.662Z,95089.88
2022-08-03T13:30:09.430Z,95093.28
2022-08-03T13:32:36.666Z,95078.00
2022-08-03T13:35:04.106Z,95081.09
2022-08-03T13:37:31.559Z,95087.84
2022-08-03T13:40:02.717Z,95085.66
2022-08-03T13:42:32.193Z,95074.44
2022-08-03T13:45:00.090Z,95071.38
2022-08-03T13:47:27.675Z,95079.84
2022-08-03T13:49:59.803Z,95073.59
2022-08-03T13:52:33.341Z,95070.94
2022-08-03T13:55:00.879Z,95071.25
2022-08-03T13:58:04.904Z,95065.19
2022-08-03T14:00:26.251Z,95061.53
2022-08-03T14:03:03.943Z,95064.34
2022-08-03T14:05:33.120Z,95057.16
2022-08-03T14:08:04.222Z,95058.97
2022-08-03T14:10:32.944Z,95054.84
2022-08-03T14:12:59.643Z,95043.69
2022-08-03T14:15:26.771Z,95045.16
2022-08-03T14:17:53.424Z,95050.69
2022-08-03T14:20:36.425Z,95044.84
2022-08-03T14:23:08.701Z,95044.53
2022-08-03T14:25:44.474Z,95030.63
2022-08-03T14:28:21.656Z,95039.84
2022-08-03T14:30:48.683Z,95030.44
2022-08-03T14:33:15.739Z,95022.41
2022-08-03T14:35:42.548Z,95027.59
2022-08-03T14:38:09.236Z,95022.91
2022-08-03T14:40:35.974Z,95020.84
2022-08-03T14:43:02.703Z,95020.56
2022-08-03T14:45:29.370Z,95013.59
2022-08-03T14:50:29.394Z,95006.91
2022-08-03T14:50:48.383Z,95010.31
2022-08-03T14:53:17.617Z,95004.47
2022-08-03T14:55:50.813Z,95003.88
2022-08-03T14:58:27.143Z,95002.38
2022-08-03T15:00:55.851Z,95000.50
2022-08-03T15:03:24.745Z,95000.47
2022-08-03T15:05:53.203Z,94996.16
2022-08-03T15:08:20.470Z,94998.50
2022-08-03T15:10:47.325Z,94998.28
2022-08-03T15:13:17.090Z,94997.72
2022-08-03T15:15:43.822Z,94993.81
2022-08-03T15:18:10.966Z,94991.00
2022-08-03T15:20:46.997Z,94990.16
2022-08-03T15:23:15.618Z,94983.59
2022-08-03T15:26:28.550Z,94989.94
2022-08-03T15:28:33.471Z,94984.47
2022-08-03T15:31:01.425Z,94980.56
2022-08-03T15:33:29.099Z,94971.09
2022-08-03T15:35:57.173Z,94972.91
2022-08-03T15:38:26.870Z,94977.00
2022-08-03T15:40:54.846Z,94975.50
2022-08-03T15:43:22.297Z,94975.00
2022-08-03T15:45:54.639Z,94963.34
2022-08-03T15:48:35.669Z,94973.06
2022-08-03T15:51:02.347Z,94976.28
2022-08-03T15:53:29.021Z,94969.72
2022-08-03T15:55:55.705Z,94967.06
2022-08-03T15:59:09.608Z,94963.50
2022-08-03T16:01:09.197Z,94958.19
2022-08-03T16:03:35.934Z,94962.41
2022-08-03T16:06:06.344Z,94963.41
2022-08-03T16:08:34.007Z,94963.81
2022-08-03T16:11:01.333Z,94954.31
2022-08-03T16:14:13.820Z,94962.53
2022-08-03T16:16:14.917Z,94952.72
2022-08-03T16:18:41.619Z,94959.50
2022-08-03T16:21:08.426Z,94955.31
2022-08-03T16:23:39.171Z,94948.75
2022-08-03T16:26:09.500Z,94952.13
2022-08-03T16:28:36.180Z,94950.22
2022-08-03T16:31:02.826Z,94949.41
2022-08-03T16:33:30.645Z,94952.44
2022-08-03T16:35:57.532Z,94946.50
2022-08-03T16:38:24.269Z,94937.78
2022-08-03T16:40:51.328Z,94945.13
2022-08-03T16:43:19.835Z,94931.13
2022-08-03T16:45:48.101Z,94932.38
2022-08-03T16:48:16.525Z,94931.47
2022-08-03T16:50:44.264Z,94930.94
2022-08-03T16:53:16.388Z,94930.78
2022-08-03T16:55:53.960Z,94933.03
2022-08-03T16:58:41.525Z,94934.50
2022-08-03T17:01:21.687Z,94929.00
2022-08-03T17:04:04.750Z,94930.72
2022-08-03T17:06:35.659Z,94936.56
2022-08-03T17:09:11.982Z,94920.97
2022-08-03T17:11:47.175Z,94922.53
2022-08-03T17:14:16.782Z,94929.41
2022-08-03T17:16:53.043Z,94932.81
2022-08-03T17:19:24.530Z,94926.53
2022-08-03T17:22:04.891Z,94926.69
2022-08-03T17:24:33.354Z,94929.41
2022-08-03T17:27:09.021Z,94925.63
2022-08-03T17:29:51.296Z,94925.78
2022-08-03T17:32:21.647Z,94929.34
2022-08-03T17:34:49.011Z,94920.69
2022-08-03T17:37:27.021Z,94927.69
2022-08-03T17:40:04.214Z,94919.41
2022-08-03T17:42:33.238Z,94916.78
2022-08-03T17:45:03.848Z,94927.84
2022-08-03T17:47:41.848Z,94931.06
2022-08-03T17:50:25.230Z,94938.28
2022-08-03T17:53:15.395Z,94934.34
2022-08-03T17:59:51.629Z,94933.28
2022-08-03T18:02:38.850Z,94940.28
2022-08-03T18:05:17.580Z,94932.28
2022-08-03T18:07:49.592Z,94939.31
2022-08-03T18:10:26.364Z,94932.91
2022-08-03T18:12:54.372Z,94933.66
2022-08-03T18:15:28.684Z,94942.59
2022-08-03T18:18:10.931Z,94933.53
2022-08-03T18:20:41.564Z,94937.19
2022-08-03T18:23:25.121Z,94940.69
2022-08-03T18:26:07.756Z,94936.78
2022-08-03T18:28:39.672Z,94937.03
2022-08-03T18:31:11.623Z,94940.44
2022-08-03T18:34:17.950Z,94942.34
2022-08-03T18:36:29.999Z,94936.59
2022-08-03T18:38:59.525Z,94945.88
2022-08-03T18:41:33.484Z,94941.19
2022-08-03T18:44:07.120Z,94945.16
2022-08-03T18:46:35.868Z,94937.31
2022-08-03T18:49:38.538Z,94948.19
2022-08-03T18:52:21.639Z,94940.22
2022-08-03T18:55:01.061Z,94939.00
2022-08-03T18:58:06.340Z,94942.34
2022-08-03T19:00:54.266Z,94943.47
2022-08-03T19:03:25.515Z,94935.16
2022-08-03T19:06:20.054Z,94943.19
2022-08-03T19:09:04.272Z,94937.63
2022-08-03T19:12:14.441Z,94946.13
2022-08-03T19:14:43.129Z,94943.63
2022-08-03T19:17:12.273Z,94941.72
2022-08-03T19:19:44.993Z,94939.19
2022-08-03T19:22:16.303Z,94945.53
2022-08-03T19:24:46.233Z,94951.81
2022-08-03T19:27:15.872Z,94951.06
2022-08-03T19:29:58.924Z,94957.88
2022-08-03T19:32:30.065Z,94960.91
2022-08-03T19:34:59.603Z,94955.03
2022-08-03T19:37:38.639Z,94967.28
2022-08-03T19:40:14.493Z,94966.22
2022-08-03T19:42:53.180Z,94969.28
2022-08-03T19:46:04.881Z,94968.78
2022-08-03T19:48:20.454Z,94970.78
2022-08-03T19:50:53.094Z,94972.25
2022-08-03T19:53:20.551Z,94971.25
2022-08-03T19:55:54.168Z,94971.38
2022-08-03T19:58:29.879Z,94973.84
2022-08-03T20:00:56.675Z,94974.75
2022-08-03T20:03:27.352Z,94983.44
2022-08-03T20:06:10.578Z,94976.16
2022-08-03T20:08:44.101Z,94987.19
2022-08-03T20:11:11.476Z,94987.13
2022-08-03T20:13:39.155Z,94987.13
2022-08-03T20:16:06.376Z,94988.25
2022-08-03T20:18:39.277Z,94992.56
2022-08-03T20:21:14.800Z,94991.56
2022-08-03T20:24:03.381Z,94992.47
2022-08-03T20:26:33.466Z,94986.34
2022-08-03T20:29:09.930Z,94984.94
2022-08-03T20:31:37.516Z,94984.69
2022-08-03T20:34:06.739Z,94987.81
2022-08-03T20:36:33.533Z,94983.94
2022-08-03T20:39:00.611Z,94981.00
2022-08-03T20:41:27.432Z,94987.44
2022-08-03T20:43:54.358Z,94984.94
2022-08-03T20:46:31.802Z,94991.78
2022-08-03T20:49:03.980Z,94986.44
2022-08-03T20:51:52.715Z,94977.63
2022-08-03T20:54:31.353Z,94980.06
2022-08-03T20:57:00.465Z,94984.19
2022-08-03T20:59:27.327Z,94985.63
2022-08-03T21:01:54.769Z,94986.44
2022-08-03T21:04:21.661Z,94990.72
2022-08-03T21:06:54.276Z,94994.56
2022-08-03T21:09:39.785Z,94993.00
2022-08-03T21:12:12.113Z,94987.78
2022-08-03T21:13:04.598Z,94936.19
2022-08-03T21:14:51.925Z,94989.94
2022-08-03T21:17:39.228Z,94991.81
2022-08-03T21:20:09.489Z,94997.38
2022-08-03T21:22:39.139Z,94989.34
2022-08-03T21:25:08.926Z,94990.44
2022-08-03T21:27:37.024Z,94992.44
2022-08-03T21:30:09.711Z,94989.38
2022-08-03T21:32:37.153Z,94984.84
2022-08-03T21:35:04.321Z,94998.09
2022-08-03T21:37:31.161Z,94995.03
2022-08-03T21:39:58.009Z,95001.28
2022-08-03T21:42:24.987Z,94992.69
2022-08-03T21:44:52.972Z,94993.47
2022-08-03T21:47:23.620Z,95003.88
2022-08-03T21:50:08.830Z,95005.94
2022-08-03T21:52:44.464Z,95016.38
2022-08-03T21:55:20.439Z,95010.91
2022-08-03T21:57:53.481Z,95016.59
2022-08-03T22:00:22.892Z,95022.38
2022-08-03T22:02:57.468Z,95021.53
2022-08-03T22:05:42.733Z,95019.66
2022-08-03T22:08:14.205Z,95016.78
2022-08-03T22:10:44.673Z,95026.25
2022-08-03T22:13:14.352Z,95030.94
2022-08-03T22:15:42.219Z,95025.53
2022-08-03T22:18:09.901Z,95033.03
2022-08-03T22:20:37.396Z,95031.13
2022-08-03T22:23:06.388Z,95031.59
2022-08-03T22:25:38.268Z,95037.94
2022-08-03T22:28:12.053Z,95040.38
2022-08-03T22:30:40.472Z,95042.13
2022-08-03T22:33:11.804Z,95043.75
2022-08-03T22:35:50.211Z,95046.81
2022-08-03T22:38:18.610Z,95046.28
2022-08-03T22:40:48.233Z,95049.09
2022-08-03T22:43:16.038Z,95048.00
2022-08-03T22:46:08.970Z,95049.84
2022-08-03T22:48:40.989Z,95051.72
2022-08-03T22:51:09.103Z,95047.69
2022-08-03T22:53:36.156Z,95045.75
2022-08-03T22:56:03.467Z,95048.94
2022-08-03T22:58:30.134Z,95045.66
2022-08-03T23:01:08.547Z,95046.31
2022-08-03T23:04:01.150Z,95046.97
2022-08-03T23:06:36.910Z,95059.78
2022-08-03T23:09:10.302Z,95056.94
2022-08-03T23:11:45.607Z,95058.47
2022-08-03T23:14:15.779Z,95057.44
2022-08-03T23:16:46.256Z,95064.53
2022-08-03T23:19:17.430Z,95055.72
2022-08-03T23:22:02.513Z,95059.78
2022-08-03T23:24:34.204Z,95055.22
2022-08-03T23:27:03.716Z,95052.53
2022-08-03T23:29:33.652Z,95058.09
2022-08-03T23:32:01.841Z,95059.03
2022-08-03T23:34:30.741Z,95068.25
2022-08-03T23:37:01.191Z,95060.88
2022-08-03T23:39:34.999Z,95062.66
2022-08-03T23:42:03.131Z,95064.00
2022-08-03T23:44:33.225Z,95068.94
2022-08-03T23:47:00.097Z,95063.09
2022-08-03T23:49:26.762Z,95066.72
2022-08-03T23:52:19.132Z,95063.06
2022-08-03T23:55:03.390Z,95068.63
2022-08-03T23:57:36.859Z,95065.47
